Time;durP1;ratioP1;P1;durP2;ratioP2;P2;SDS_P1;SDS_P2;PMS_P1;PMS_P2;Temp;Humidity;BMP_temperature;BMP_pressure;BME280_temperature;BME280_humidity;BME280_pressure;Samples;Min_cycle;Max_cycle;Signal;HPM_P1;HPM_P2
2023/09/24 00:00:20;;;;;;;9.90;6.70;;;;;;;14.96;100.00;98247.13;107971;1274;26483;-82
2023/09/24 00:03:10;;;;;;;7.70;5.20;;;;;;;14.85;100.00;98245.39;106483;1284;24250;-81
2023/09/24 00:05:40;;;;;;;10.40;6.10;;;;;;;14.85;100.00;98240.89;106588;1284;22600;-82
2023/09/24 00:08:09;;;;;;;9.00;6.40;;;;;;;15.01;100.00;98239.02;106682;1284;22534;-83
2023/09/24 00:10:37;;;;;;;11.00;6.20;;;;;;;14.96;100.00;98236.60;106637;1278;24381;-83
2023/09/24 00:13:04;;;;;;;7.10;5.10;;;;;;;14.94;100.00;98233.46;106564;1281;23131;-83
2023/09/24 00:15:33;;;;;;;8.70;4.90;;;;;;;14.87;100.00;98231.29;106580;1281;22649;-83
2023/09/24 00:18:01;;;;;;;8.60;5.60;;;;;;;14.66;100.00;98234.18;106604;1280;24190;-83
2023/09/24 00:20:30;;;;;;;10.80;5.40;;;;;;;14.57;100.00;98235.35;106611;1281;22618;-82
2023/09/24 00:22:58;;;;;;;9.20;5.40;;;;;;;14.57;100.00;98234.98;106641;1284;24398;-83
2023/09/24 00:25:26;;;;;;;9.70;4.90;;;;;;;14.59;100.00;98244.08;106544;1284;22795;-83
2023/09/24 00:27:56;;;;;;;6.30;4.40;;;;;;;14.52;100.00;98246.65;106616;1284;22721;-83
2023/09/24 00:30:24;;;;;;;8.50;4.90;;;;;;;14.62;100.00;98245.33;106429;1269;195498;-82
2023/09/24 00:32:55;;;;;;;7.00;4.30;;;;;;;14.96;100.00;98242.05;106558;1284;25447;-81
2023/09/24 00:35:23;;;;;;;9.20;6.20;;;;;;;14.97;100.00;98241.11;106627;1278;22547;-82
2023/09/24 00:37:51;;;;;;;7.10;5.00;;;;;;;14.81;100.00;98241.31;106534;1271;22570;-82
2023/09/24 00:40:20;;;;;;;11.10;5.60;;;;;;;14.75;100.00;98239.16;106574;1274;22564;-82
2023/09/24 00:42:49;;;;;;;7.80;4.60;;;;;;;14.65;100.00;98242.53;106626;1284;22610;-82
2023/09/24 00:45:17;;;;;;;9.50;5.40;;;;;;;14.68;100.00;98251.27;106642;1279;22837;-82
2023/09/24 00:47:46;;;;;;;8.90;5.50;;;;;;;14.81;100.00;98254.16;106634;1278;25348;-80
2023/09/24 00:50:15;;;;;;;8.60;5.30;;;;;;;14.82;100.00;98261.41;106576;1279;22562;-81
2023/09/24 00:52:45;;;;;;;7.40;5.10;;;;;;;15.08;100.00;98258.98;106509;1279;25492;-80
2023/09/24 00:55:14;;;;;;;10.90;6.50;;;;;;;15.29;100.00;98260.81;106439;1284;22561;-80
2023/09/24 00:57:43;;;;;;;9.50;6.10;;;;;;;15.20;100.00;98262.58;106500;1272;22575;-81
2023/09/24 01:00:11;;;;;;;10.50;5.70;;;;;;;15.15;100.00;98269.98;106559;1281;24382;-81
2023/09/24 01:02:40;;;;;;;10.80;6.70;;;;;;;15.23;100.00;98275.98;106604;1272;22519;-81
2023/09/24 01:05:10;;;;;;;11.30;5.60;;;;;;;15.21;100.00;98278.32;106550;1284;26613;-83
2023/09/24 01:07:41;;;;;;;9.60;6.40;;;;;;;15.27;100.00;98281.89;106683;1278;22637;-81
2023/09/24 01:10:10;;;;;;;10.80;6.60;;;;;;;15.33;100.00;98282.88;106607;1284;23915;-83
2023/09/24 01:12:39;;;;;;;10.70;6.50;;;;;;;15.36;100.00;98290.02;106654;1282;25383;-82
2023/09/24 01:15:13;;;;;;;12.20;6.50;;;;;;;15.19;100.00;98303.59;106575;1284;25284;-82
2023/09/24 01:17:41;;;;;;;11.90;6.50;;;;;;;15.06;100.00;98314.14;106498;1284;22562;-82
2023/09/24 01:20:13;;;;;;;9.90;7.20;;;;;;;14.95;100.00;98317.54;106436;1284;22780;-82
2023/09/24 01:22:42;;;;;;;12.30;6.50;;;;;;;15.05;100.00;98317.76;106544;1278;25411;-82
2023/09/24 01:25:11;;;;;;;12.80;7.00;;;;;;;15.05;100.00;98319.36;106496;1283;22546;-82
2023/09/24 01:27:39;;;;;;;11.80;6.40;;;;;;;15.09;100.00;98315.52;106472;1284;22695;-82
2023/09/24 01:30:08;;;;;;;9.80;5.50;;;;;;;15.01;100.00;98312.15;106488;1284;22643;-83
2023/09/24 01:32:36;;;;;;;8.10;5.40;;;;;;;15.17;100.00;98305.34;106500;1261;22540;-82
2023/09/24 01:35:06;;;;;;;14.60;7.00;;;;;;;15.34;100.00;98303.78;106548;1265;22541;-83
2023/09/24 01:37:34;;;;;;;9.40;6.50;;;;;;;15.42;100.00;98305.88;106624;1274;23268;-83
2023/09/24 01:40:12;;;;;;;9.60;6.40;;;;;;;15.22;100.00;98306.43;106549;1284;22757;-82
2023/09/24 01:42:40;;;;;;;9.80;6.50;;;;;;;14.97;100.00;98313.27;106586;1279;24394;-81
2023/09/24 01:45:09;;;;;;;10.80;6.50;;;;;;;14.78;100.00;98316.97;106522;1284;25479;-83
2023/09/24 01:47:37;;;;;;;9.10;7.20;;;;;;;14.55;100.00;98324.23;106516;1284;25431;-82
2023/09/24 01:50:07;;;;;;;9.00;7.40;;;;;;;14.32;100.00;98334.02;106530;1270;25298;-82
2023/09/24 01:52:36;;;;;;;8.20;6.10;;;;;;;14.19;100.00;98344.75;106549;1278;22677;-82
2023/09/24 01:55:04;;;;;;;8.80;6.20;;;;;;;14.05;100.00;98349.83;106527;1284;22691;-82
2023/09/24 01:57:32;;;;;;;8.70;6.70;;;;;;;13.95;100.00;98350.91;106558;1269;24439;-81
2023/09/24 02:00:06;;;;;;;8.70;6.20;;;;;;;13.71;100.00;98353.48;106510;1270;24057;-83
2023/09/24 02:02:34;;;;;;;8.60;5.40;;;;;;;13.49;100.00;98354.66;106490;1274;22528;-83
2023/09/24 02:05:06;;;;;;;5.60;4.00;;;;;;;13.33;100.00;98349.64;106478;1262;22539;-82
2023/09/24 02:07:36;;;;;;;6.80;4.30;;;;;;;13.29;100.00;98350.45;106518;1284;25357;-80
2023/09/24 02:10:05;;;;;;;5.90;4.10;;;;;;;13.33;100.00;98349.98;106510;1284;23390;-81
2023/09/24 02:12:37;;;;;;;8.70;4.10;;;;;;;13.52;100.00;98343.82;106597;1278;22639;-81
2023/09/24 02:15:10;;;;;;;5.70;3.90;;;;;;;13.56;100.00;98345.55;107072;1277;25461;-81
2023/09/24 02:17:43;;;;;;;7.80;4.90;;;;;;;13.49;100.00;98343.02;107894;1278;22543;-83
2023/09/24 02:22:52;;;;;;;7.90;5.00;;;;;;;13.17;100.00;98352.00;108374;1277;22615;-82
2023/09/24 02:25:21;;;;;;;7.80;4.40;;;;;;;13.03;100.00;98353.65;106515;1274;22554;-81
2023/09/24 02:27:50;;;;;;;7.40;4.60;;;;;;;13.08;100.00;98360.36;106460;1284;22628;-82
2023/09/24 02:30:20;;;;;;;4.70;4.00;;;;;;;13.38;100.00;98361.89;106612;1281;24230;-82
2023/09/24 02:32:49;;;;;;;6.20;4.50;;;;;;;13.82;100.00;98368.82;106613;1284;22665;-83
2023/09/24 02:35:17;;;;;;;6.90;3.90;;;;;;;14.08;100.00;98372.88;106502;1273;22777;-83
2023/09/24 02:37:52;;;;;;;4.50;3.70;;;;;;;14.05;100.00;98379.63;106529;1273;23442;-82
2023/09/24 02:40:22;;;;;;;9.60;4.00;;;;;;;14.29;100.00;98383.46;106573;1281;22682;-83
2023/09/24 02:42:53;;;;;;;6.40;3.60;;;;;;;14.34;100.00;98389.36;106473;1284;23028;-82
2023/09/24 02:45:22;;;;;;;4.70;3.60;;;;;;;14.45;100.00;98398.42;106635;1284;22663;-83
2023/09/24 02:47:51;;;;;;;6.70;3.90;;;;;;;14.62;100.00;98403.89;106558;1269;23398;-81
2023/09/24 02:50:25;;;;;;;6.30;3.80;;;;;;;14.80;100.00;98408.98;106577;1284;22577;-83
2023/09/24 02:52:56;;;;;;;8.00;4.30;;;;;;;14.91;100.00;98415.19;106633;1284;22585;-84
2023/09/24 02:55:26;;;;;;;7.10;3.90;;;;;;;14.83;100.00;98419.70;107997;1284;23848;-82
2023/09/24 02:57:55;;;;;;;8.30;3.80;;;;;;;14.79;100.00;98425.11;107012;1284;25400;-83
2023/09/24 03:00:35;;;;;;;7.20;4.50;;;;;;;14.69;100.00;98423.21;106544;1284;22589;-84
2023/09/24 03:03:07;;;;;;;7.80;4.30;;;;;;;14.70;100.00;98421.55;106487;1270;25582;-85
2023/09/24 03:05:38;;;;;;;11.90;4.30;;;;;;;14.70;100.00;98422.23;106454;1284;25394;-84
2023/09/24 03:08:11;;;;;;;6.80;4.20;;;;;;;14.73;100.00;98423.32;106470;1284;25357;-83
2023/09/24 03:10:40;;;;;;;6.70;3.70;;;;;;;14.88;100.00;98420.38;106490;1269;22550;-83
2023/09/24 03:13:08;;;;;;;9.70;3.80;;;;;;;14.95;100.00;98428.25;106504;1284;22651;-83
2023/09/24 03:15:37;;;;;;;8.10;3.70;;;;;;;15.01;100.00;98430.70;106487;1269;22603;-82
2023/09/24 03:18:05;;;;;;;8.00;4.40;;;;;;;14.92;100.00;98429.66;106467;1260;22690;-84
2023/09/24 03:20:34;;;;;;;7.00;3.90;;;;;;;14.75;100.00;98428.70;106492;1269;26568;-85
2023/09/24 03:23:08;;;;;;;7.40;5.20;;;;;;;14.65;100.00;98430.22;106547;1284;22548;-83
2023/09/24 03:25:39;;;;;;;10.10;5.20;;;;;;;14.58;100.00;98438.00;106571;1261;24355;-84
2023/09/24 03:28:08;;;;;;;6.20;3.90;;;;;;;14.68;100.00;98433.98;106420;1284;23147;-84
2023/09/24 03:30:36;;;;;;;7.70;3.40;;;;;;;14.98;100.00;98434.64;106455;1280;22593;-83
2023/09/24 03:33:04;;;;;;;8.40;4.60;;;;;;;15.15;100.00;98437.32;106443;1284;22597;-85
2023/09/24 03:35:33;;;;;;;9.00;4.90;;;;;;;15.31;100.00;98433.73;106456;1284;22527;-84
2023/09/24 03:38:01;;;;;;;7.30;4.20;;;;;;;15.30;100.00;98435.95;106520;1264;24274;-83
2023/09/24 03:40:29;;;;;;;11.20;6.10;;;;;;;15.41;100.00;98443.83;106654;1268;24216;-84
2023/09/24 03:42:58;;;;;;;6.80;4.60;;;;;;;15.37;100.00;98441.33;106535;1283;24272;-83
2023/09/24 03:45:26;;;;;;;10.20;5.60;;;;;;;15.41;100.00;98439.91;106623;1284;22673;-83
2023/09/24 03:47:56;;;;;;;9.80;5.50;;;;;;;15.55;100.00;98436.34;106512;1271;22577;-84
2023/09/24 03:50:26;;;;;;;8.00;5.20;;;;;;;15.70;100.00;98441.02;106364;1284;22560;-83
2023/09/24 03:52:56;;;;;;;7.90;6.60;;;;;;;15.75;100.00;98450.29;106576;1261;22603;-83
2023/09/24 03:55:24;;;;;;;12.90;5.60;;;;;;;15.77;100.00;98450.95;106666;1270;22541;-83
2023/09/24 03:57:52;;;;;;;10.70;5.70;;;;;;;15.85;100.00;98449.65;106584;1284;22586;-82
2023/09/24 04:00:21;;;;;;;9.00;5.80;;;;;;;15.94;100.00;98454.86;106599;1284;22669;-83
2023/09/24 04:02:51;;;;;;;10.70;5.80;;;;;;;15.71;100.00;98454.40;106606;1275;22540;-83
2023/09/24 04:05:22;;;;;;;9.30;5.50;;;;;;;15.30;100.00;98461.41;106636;1273;22539;-83
2023/09/24 04:07:54;;;;;;;8.50;5.90;;;;;;;14.95;100.00;98462.73;106642;1284;22640;-82
2023/09/24 04:10:25;;;;;;;7.90;5.50;;;;;;;14.76;100.00;98457.55;106662;1273;26616;-82
2023/09/24 04:12:54;;;;;;;8.70;5.40;;;;;;;14.96;100.00;98462.96;106623;1284;22563;-84
2023/09/24 04:15:27;;;;;;;9.10;4.90;;;;;;;15.03;100.00;98473.04;106550;1272;22649;-84
2023/09/24 04:17:57;;;;;;;9.50;5.80;;;;;;;15.23;100.00;98474.32;106654;1282;22589;-83
2023/09/24 04:20:32;;;;;;;9.10;5.60;;;;;;;15.48;100.00;98472.41;106624;1273;22558;-83
2023/09/24 04:23:00;;;;;;;14.00;5.50;;;;;;;15.64;100.00;98470.04;106591;1284;25277;-83
2023/09/24 04:25:29;;;;;;;8.80;5.60;;;;;;;15.77;100.00;98468.04;106600;1284;22593;-83
2023/09/24 04:27:57;;;;;;;6.50;5.10;;;;;;;15.87;100.00;98468.70;106651;1284;25400;-83
2023/09/24 04:30:25;;;;;;;12.60;5.90;;;;;;;15.92;100.00;98475.45;106650;1269;24189;-83
2023/09/24 04:32:56;;;;;;;10.90;5.60;;;;;;;16.02;100.00;98480.96;106616;1284;22709;-82
2023/09/24 04:35:27;;;;;;;12.00;7.30;;;;;;;16.07;100.00;98486.84;106623;1275;24252;-83
2023/09/24 04:37:56;;;;;;;9.80;6.40;;;;;;;15.81;99.97;98496.36;106570;1282;22639;-81
2023/09/24 04:40:26;;;;;;;10.20;7.10;;;;;;;15.44;100.00;98500.38;106533;1284;26635;-81
2023/09/24 04:42:55;;;;;;;13.50;6.90;;;;;;;15.25;100.00;98502.05;106496;1284;22674;-81
2023/09/24 04:45:23;;;;;;;9.50;5.90;;;;;;;15.30;100.00;98507.63;106502;1284;22548;-81
2023/09/24 04:47:51;;;;;;;10.40;5.50;;;;;;;15.55;100.00;98507.02;106466;1276;24048;-81
2023/09/24 04:50:19;;;;;;;12.10;6.40;;;;;;;15.82;100.00;98507.77;106507;1284;22654;-81
2023/09/24 04:52:48;;;;;;;8.90;5.60;;;;;;;15.98;100.00;98504.59;106519;1278;22588;-81
2023/09/24 04:55:17;;;;;;;12.30;6.40;;;;;;;15.94;100.00;98507.91;106502;1284;22552;-81
2023/09/24 04:57:45;;;;;;;10.30;6.40;;;;;;;15.99;100.00;98506.21;106439;1284;22542;-81
2023/09/24 05:00:15;;;;;;;8.40;6.40;;;;;;;15.83;99.72;98517.27;106903;1284;22759;-81
2023/09/24 05:02:47;;;;;;;9.10;6.60;;;;;;;15.50;99.30;98524.62;106602;1273;24249;-81
2023/09/24 05:05:16;;;;;;;8.20;6.20;;;;;;;15.22;99.91;98525.77;106615;1284;22537;-82
2023/09/24 05:07:44;;;;;;;8.20;5.90;;;;;;;14.94;99.57;98521.91;106577;1270;22819;-82
2023/09/24 05:10:12;;;;;;;8.50;5.50;;;;;;;14.65;99.97;98524.88;106639;1283;25265;-81
2023/09/24 05:12:41;;;;;;;9.80;6.20;;;;;;;14.62;100.00;98533.41;106533;1282;24255;-83
2023/09/24 05:15:10;;;;;;;8.90;6.40;;;;;;;14.67;100.00;98544.74;106575;1284;26736;-82
2023/09/24 05:17:38;;;;;;;7.30;5.50;;;;;;;14.64;100.00;98546.55;106590;1282;24512;-82
2023/09/24 05:20:08;;;;;;;9.70;6.70;;;;;;;14.67;100.00;98544.36;106468;1284;22627;-82
2023/09/24 05:22:37;;;;;;;8.90;6.20;;;;;;;14.73;100.00;98541.98;106415;1269;22677;-82
2023/09/24 05:25:05;;;;;;;8.90;5.60;;;;;;;14.94;100.00;98546.21;106382;1284;22550;-83
2023/09/24 05:27:34;;;;;;;8.10;6.00;;;;;;;14.81;100.00;98544.38;106432;1284;22753;-82
2023/09/24 05:30:02;;;;;;;11.70;5.50;;;;;;;14.66;100.00;98540.43;106462;1277;22646;-82
2023/09/24 05:32:33;;;;;;;8.00;5.30;;;;;;;14.38;100.00;98536.79;106465;1271;22658;-82
2023/09/24 05:35:03;;;;;;;8.50;5.80;;;;;;;14.16;100.00;98537.58;106428;1281;22554;-83
2023/09/24 05:37:31;;;;;;;10.30;5.70;;;;;;;14.07;100.00;98535.81;106348;1284;22580;-82
2023/09/24 05:39:59;;;;;;;12.40;5.80;;;;;;;14.11;100.00;98534.23;106356;1273;25399;-81
2023/09/24 05:42:27;;;;;;;9.00;5.80;;;;;;;14.11;100.00;98541.27;106329;1282;22550;-82
2023/09/24 05:44:55;;;;;;;9.20;6.10;;;;;;;14.04;100.00;98547.42;106356;1281;22544;-82
2023/09/24 05:47:26;;;;;;;9.70;6.20;;;;;;;13.90;100.00;98545.73;106558;1284;25465;-82
2023/09/24 05:49:54;;;;;;;8.50;6.20;;;;;;;13.95;100.00;98547.54;106643;1272;22545;-82
2023/09/24 05:52:22;;;;;;;11.90;8.80;;;;;;;14.20;100.00;98545.33;106575;1277;22533;-82
2023/09/24 05:54:51;;;;;;;9.60;5.60;;;;;;;14.32;100.00;98553.52;107198;1282;22761;-80
2023/09/24 05:57:20;;;;;;;12.70;5.50;;;;;;;14.21;100.00;98561.15;107152;1284;24768;-80
2023/09/24 05:59:49;;;;;;;7.80;5.50;;;;;;;13.99;100.00;98565.16;106486;1284;22545;-80
2023/09/24 06:02:17;;;;;;;7.50;5.00;;;;;;;13.78;100.00;98566.59;106636;1284;22650;-80
2023/09/24 06:04:45;;;;;;;7.40;5.30;;;;;;;13.57;100.00;98561.93;106505;1273;25368;-80
2023/09/24 06:07:13;;;;;;;7.20;5.20;;;;;;;13.42;100.00;98557.62;106580;1273;24269;-80
2023/09/24 06:09:41;;;;;;;7.60;5.50;;;;;;;13.26;100.00;98562.42;106588;1284;22749;-82
2023/09/24 06:12:09;;;;;;;7.90;5.70;;;;;;;13.17;100.00;98563.70;106599;1270;23916;-81
2023/09/24 06:14:38;;;;;;;11.00;5.90;;;;;;;13.09;100.00;98563.25;106591;1284;22582;-81
2023/09/24 06:17:06;;;;;;;10.50;6.60;;;;;;;13.03;100.00;98557.51;106572;1270;24978;-80
2023/09/24 06:19:34;;;;;;;8.50;5.60;;;;;;;12.98;100.00;98557.73;106233;1281;22537;-80
2023/09/24 06:22:02;;;;;;;8.70;4.80;;;;;;;12.99;100.00;98565.88;106183;1273;25346;-80
2023/09/24 06:24:30;;;;;;;6.30;4.80;;;;;;;13.02;100.00;98568.95;106162;1284;25420;-83
2023/09/24 06:26:58;;;;;;;6.80;5.30;;;;;;;13.05;100.00;98574.04;106377;1284;24304;-83
2023/09/24 06:29:26;;;;;;;7.10;5.40;;;;;;;13.07;100.00;98571.52;106587;1284;22641;-83
2023/09/24 06:31:55;;;;;;;6.00;5.10;;;;;;;13.08;100.00;98573.52;108266;1273;22587;-83
2023/09/24 06:34:25;;;;;;;6.70;4.70;;;;;;;13.05;100.00;98578.09;108276;1284;22550;-84
2023/09/24 06:36:54;;;;;;;8.60;4.70;;;;;;;13.05;100.00;98582.86;108309;1284;23006;-83
2023/09/24 06:39:22;;;;;;;6.80;5.30;;;;;;;13.05;100.00;98580.76;108319;1283;22576;-83
2023/09/24 06:41:50;;;;;;;6.90;5.00;;;;;;;13.08;100.00;98586.16;106498;1284;22552;-84
2023/09/24 06:44:22;;;;;;;7.50;4.70;;;;;;;13.10;100.00;98595.48;106598;1274;22646;-84
2023/09/24 06:46:52;;;;;;;5.80;4.60;;;;;;;13.14;100.00;98608.71;106632;1284;24259;-84
2023/09/24 06:49:20;;;;;;;6.90;4.90;;;;;;;13.14;100.00;98610.99;106619;1277;22695;-84
2023/09/24 06:51:48;;;;;;;8.10;4.60;;;;;;;13.13;100.00;98613.19;106572;1273;25486;-84
2023/09/24 06:54:16;;;;;;;6.90;5.00;;;;;;;13.10;100.00;98619.19;106578;1270;22639;-83
2023/09/24 06:56:45;;;;;;;5.80;4.50;;;;;;;13.09;100.00;98626.52;106528;1273;22637;-83
2023/09/24 06:59:13;;;;;;;6.90;4.50;;;;;;;13.15;100.00;98633.45;106495;1270;24411;-84
2023/09/24 07:01:41;;;;;;;7.10;5.10;;;;;;;13.22;100.00;98633.38;106535;1279;24484;-82
2023/09/24 07:04:09;;;;;;;5.50;4.40;;;;;;;13.19;100.00;98625.86;106601;1260;25391;-84
2023/09/24 07:06:39;;;;;;;6.90;4.70;;;;;;;13.11;100.00;98620.20;106518;1270;24255;-83
2023/09/24 07:09:07;;;;;;;5.70;4.40;;;;;;;13.08;100.00;98614.99;106597;1281;22570;-83
2023/09/24 07:11:38;;;;;;;8.00;4.60;;;;;;;13.07;100.00;98621.02;106588;1273;24385;-83
2023/09/24 07:14:08;;;;;;;8.10;4.50;;;;;;;13.04;100.00;98624.05;106692;1281;22604;-83
2023/09/24 07:16:36;;;;;;;6.00;4.50;;;;;;;13.08;100.00;98631.52;106660;1284;22610;-83
2023/09/24 07:19:04;;;;;;;7.00;4.40;;;;;;;13.13;100.00;98632.44;106573;1270;24391;-84
2023/09/24 07:21:33;;;;;;;5.70;4.60;;;;;;;13.18;100.00;98636.68;106704;1270;25398;-84
2023/09/24 07:24:05;;;;;;;6.90;4.90;;;;;;;13.22;100.00;98640.89;106613;1283;22646;-83
2023/09/24 07:26:33;;;;;;;6.60;4.60;;;;;;;13.23;100.00;98643.96;106619;1276;22590;-84
2023/09/24 07:29:02;;;;;;;5.10;4.00;;;;;;;13.30;100.00;98650.58;106538;1273;22620;-84
2023/09/24 07:31:31;;;;;;;8.30;4.00;;;;;;;13.36;100.00;98650.96;106534;1276;24274;-84
2023/09/24 07:34:01;;;;;;;5.90;4.20;;;;;;;13.44;100.00;98657.75;106730;1281;26687;-85
2023/09/24 07:36:33;;;;;;;6.30;4.20;;;;;;;13.49;100.00;98664.66;106742;1284;22558;-83
2023/09/24 07:39:20;;;;;;;6.60;4.90;;;;;;;13.55;100.00;98670.83;106625;1277;24341;-83
2023/09/24 07:41:49;;;;;;;5.00;4.10;;;;;;;13.60;100.00;98674.79;106618;1284;25350;-84
2023/09/24 07:44:18;;;;;;;6.60;4.50;;;;;;;13.59;100.00;98678.04;106533;1274;25246;-84
2023/09/24 07:46:48;;;;;;;5.00;3.70;;;;;;;13.60;100.00;98680.48;106679;1268;22596;-83
2023/09/24 07:49:16;;;;;;;6.50;4.10;;;;;;;13.60;100.00;98677.70;106634;1260;25050;-83
2023/09/24 07:51:45;;;;;;;6.70;4.10;;;;;;;13.58;100.00;98681.09;106672;1274;22551;-84
2023/09/24 07:54:13;;;;;;;6.50;4.30;;;;;;;13.58;100.00;98684.08;106598;1284;22545;-84
2023/09/24 07:56:42;;;;;;;4.80;3.80;;;;;;;13.59;100.00;98686.95;106595;1268;24095;-83
2023/09/24 07:59:11;;;;;;;6.30;3.80;;;;;;;13.60;100.00;98692.18;106660;1276;23930;-84
2023/09/24 08:01:39;;;;;;;6.60;4.00;;;;;;;13.60;100.00;98692.23;106493;1284;24239;-84
2023/09/24 08:04:08;;;;;;;6.00;3.90;;;;;;;13.58;100.00;98698.00;106530;1279;22649;-85
2023/09/24 08:06:36;;;;;;;5.30;4.00;;;;;;;13.66;100.00;98696.13;106508;1283;22526;-84
2023/09/24 08:09:07;;;;;;;6.60;4.40;;;;;;;13.74;100.00;98699.99;106607;1277;25277;-86
2023/09/24 08:11:49;;;;;;;;;;;;;;;13.75;100.00;98702.23;106806;1277;22549;-83
2023/09/24 08:14:17;;;;;;;4.70;4.10;;;;;;;13.76;100.00;98703.45;106742;1268;22780;-83
2023/09/24 08:16:45;;;;;;;5.40;4.20;;;;;;;13.76;100.00;98705.14;106613;1276;25672;-83
2023/09/24 08:19:13;;;;;;;6.30;4.10;;;;;;;13.78;100.00;98709.16;106679;1284;24380;-83
2023/09/24 08:21:42;;;;;;;5.40;3.60;;;;;;;13.83;100.00;98707.44;106641;1270;22688;-82
2023/09/24 08:24:09;;;;;;;7.60;4.20;;;;;;;13.81;100.00;98707.28;106652;1284;22576;-83
2023/09/24 08:26:38;;;;;;;5.40;3.70;;;;;;;13.79;100.00;98704.27;106619;1278;24543;-82
2023/09/24 08:29:06;;;;;;;6.80;4.10;;;;;;;13.81;100.00;98707.60;106485;1284;22571;-83
2023/09/24 08:31:35;;;;;;;5.50;3.90;;;;;;;13.81;100.00;98709.83;106542;1273;22547;-82
2023/09/24 08:34:03;;;;;;;4.60;4.00;;;;;;;13.75;100.00;98712.52;106555;1282;22579;-83
2023/09/24 08:36:32;;;;;;;6.70;4.50;;;;;;;13.71;100.00;98708.77;106596;1273;25449;-82
2023/09/24 08:39:03;;;;;;;5.20;4.50;;;;;;;13.73;100.00;98712.25;106650;1262;24273;-82
2023/09/24 08:41:38;;;;;;;5.00;4.00;;;;;;;13.71;100.00;98712.04;106595;1284;22790;-82
2023/09/24 08:44:13;;;;;;;5.10;3.80;;;;;;;13.72;100.00;98712.75;106613;1273;23437;-82
2023/09/24 08:46:41;;;;;;;;;;;;;;;13.76;100.00;98713.81;106441;1273;22806;-82
2023/09/24 08:49:10;;;;;;;5.70;3.90;;;;;;;13.75;100.00;98713.94;106518;1284;24280;-82
2023/09/24 08:51:39;;;;;;;5.20;3.70;;;;;;;13.79;100.00;98717.55;106595;1273;22585;-83
2023/09/24 08:54:07;;;;;;;4.00;3.30;;;;;;;13.80;100.00;98723.17;107127;1273;22556;-81
2023/09/24 08:56:35;;;;;;;5.30;3.90;;;;;;;13.81;100.00;98720.81;106614;1273;24061;-83
2023/09/24 08:59:03;;;;;;;4.90;3.70;;;;;;;13.79;100.00;98722.48;106567;1284;24399;-82
2023/09/24 09:01:32;;;;;;;4.50;3.90;;;;;;;13.80;100.00;98722.34;106520;1284;22577;-84
2023/09/24 09:04:00;;;;;;;8.90;4.50;;;;;;;13.82;100.00;98723.61;106638;1269;22557;-82
2023/09/24 09:06:33;;;;;;;5.80;3.80;;;;;;;13.82;100.00;98723.18;106639;1284;22543;-83
2023/09/24 09:09:02;;;;;;;7.10;3.80;;;;;;;13.88;100.00;98724.38;106617;1269;24153;-83
2023/09/24 09:11:37;;;;;;;9.20;5.00;;;;;;;13.98;100.00;98720.92;106603;1274;25263;-82
2023/09/24 09:14:07;;;;;;;9.70;6.90;;;;;;;14.11;100.00;98717.10;106717;1270;22712;-82
2023/09/24 09:16:57;;;;;;;10.30;6.90;;;;;;;14.10;100.00;98715.66;106547;1271;22591;-82
2023/09/24 09:19:29;;;;;;;8.00;4.60;;;;;;;14.07;100.00;98719.67;106617;1273;22823;-82
2023/09/24 09:22:16;;;;;;;5.50;4.00;;;;;;;14.03;100.00;98717.67;106486;1271;22613;-81
2023/09/24 09:24:46;;;;;;;6.40;4.10;;;;;;;13.99;100.00;98714.89;106648;1284;22622;-82
2023/09/24 09:27:14;;;;;;;7.30;4.00;;;;;;;14.00;100.00;98711.02;106511;1271;24260;-83
2023/09/24 09:29:42;;;;;;;4.90;3.90;;;;;;;14.02;100.00;98702.84;106532;1277;22604;-82
2023/09/24 09:32:10;;;;;;;6.20;4.50;;;;;;;14.08;100.00;98703.94;106581;1273;25359;-80
2023/09/24 09:34:51;;;;;;;6.60;4.20;;;;;;;14.12;100.00;98701.05;106534;1271;24970;-83
2023/09/24 09:37:20;;;;;;;6.10;4.10;;;;;;;14.20;100.00;98700.82;106415;1282;24083;-82
2023/09/24 09:39:48;;;;;;;6.60;4.10;;;;;;;14.29;100.00;98700.45;106475;1273;22779;-82
2023/09/24 09:42:20;;;;;;;5.10;3.80;;;;;;;14.33;100.00;98699.64;106474;1270;22537;-83
2023/09/24 09:44:50;;;;;;;5.10;3.90;;;;;;;14.34;100.00;98693.81;106682;1276;22746;-82
2023/09/24 09:47:21;;;;;;;4.00;3.60;;;;;;;14.29;100.00;98695.05;106595;1274;22563;-82
2023/09/24 09:49:58;;;;;;;8.30;4.20;;;;;;;14.31;100.00;98693.85;106496;1271;25307;-82
2023/09/24 09:52:48;;;;;;;4.50;4.10;;;;;;;14.39;100.00;98692.88;106648;1277;22624;-83
2023/09/24 09:55:16;;;;;;;5.20;4.00;;;;;;;14.43;100.00;98696.71;106624;1284;24238;-82
2023/09/24 09:57:46;;;;;;;4.80;3.60;;;;;;;14.53;100.00;98699.39;106634;1276;24263;-83
2023/09/24 10:00:16;;;;;;;4.50;3.60;;;;;;;14.64;100.00;98703.92;106719;1270;22786;-83
2023/09/24 10:02:47;;;;;;;4.40;3.50;;;;;;;14.67;100.00;98705.74;106606;1273;25420;-81
2023/09/24 10:05:17;;;;;;;8.40;4.30;;;;;;;14.67;100.00;98702.86;106704;1273;24260;-78
2023/09/24 10:07:46;;;;;;;4.80;3.60;;;;;;;14.69;100.00;98702.41;106696;1270;25253;-79
2023/09/24 10:10:40;;;;;;;5.70;3.40;;;;;;;14.63;100.00;98703.84;106233;1273;24471;-81
2023/09/24 10:13:45;;;;;;;7.10;3.80;;;;;;;14.63;100.00;98711.64;106594;1270;22751;-82
2023/09/24 10:16:25;;;;;;;6.00;3.60;;;;;;;14.66;100.00;98714.73;106669;1280;22556;-82
2023/09/24 10:18:54;;;;;;;4.80;3.80;;;;;;;14.70;100.00;98717.02;106645;1284;24212;-81
2023/09/24 10:21:33;;;;;;;4.80;3.60;;;;;;;14.69;100.00;98717.91;106611;1270;25369;-82
2023/09/24 10:24:04;;;;;;;7.40;3.20;;;;;;;14.85;100.00;98718.30;107094;1270;22369;-82
2023/09/24 10:26:54;;;;;;;5.10;3.20;;;;;;;15.04;100.00;98723.30;107776;1281;22679;-82
2023/09/24 10:29:44;;;;;;;4.90;3.50;;;;;;;15.16;100.00;98730.23;107151;1280;22558;-79
2023/09/24 10:32:21;;;;;;;4.70;3.10;;;;;;;15.30;100.00;98729.19;107029;1281;24291;-79
2023/09/24 10:34:55;;;;;;;4.30;2.90;;;;;;;15.46;100.00;98726.25;106965;1274;22576;-78
2023/09/24 10:37:34;;;;;;;4.90;3.30;;;;;;;15.59;100.00;98728.58;106773;1281;24262;-78
2023/09/24 10:40:04;;;;;;;3.90;3.10;;;;;;;15.75;100.00;98730.15;106711;1271;24229;-83
2023/09/24 10:42:37;;;;;;;3.20;2.90;;;;;;;15.82;99.92;98736.41;106560;1271;24254;-83
2023/09/24 10:45:05;;;;;;;4.90;2.90;;;;;;;15.91;99.46;98735.42;106615;1277;22676;-78
2023/09/24 10:47:38;;;;;;;4.30;2.60;;;;;;;15.94;99.87;98738.86;106544;1284;25520;-77
2023/09/24 10:50:09;;;;;;;4.50;2.70;;;;;;;16.08;100.00;98737.84;106695;1270;24236;-78
2023/09/24 10:52:50;;;;;;;4.00;2.90;;;;;;;16.10;98.72;98740.23;106666;1270;22563;-78
2023/09/24 10:55:27;;;;;;;3.70;3.10;;;;;;;15.98;97.50;98734.64;106191;1284;23386;-78
2023/09/24 10:57:57;;;;;;;4.10;2.90;;;;;;;15.93;97.04;98733.04;106608;1269;23655;-77
2023/09/24 11:00:26;;;;;;;3.70;2.70;;;;;;;15.87;97.22;98724.42;106746;1273;22644;-78
2023/09/24 11:02:59;;;;;;;4.10;2.50;;;;;;;15.94;97.80;98723.42;106249;1277;25495;-78
2023/09/24 11:05:30;;;;;;;5.10;3.50;;;;;;;15.84;96.72;98724.86;106261;1268;23917;-77
2023/09/24 11:07:58;;;;;;;4.80;2.50;;;;;;;15.83;98.25;98732.11;106255;1276;22544;-78
2023/09/24 11:10:27;;;;;;;4.90;3.00;;;;;;;15.92;98.77;98734.73;106640;1284;22671;-80
2023/09/24 11:12:57;;;;;;;4.50;2.90;;;;;;;16.02;98.44;98738.48;106119;1271;22546;-79
2023/09/24 11:15:25;;;;;;;3.40;2.70;;;;;;;16.06;97.40;98733.76;106633;1276;24206;-79
2023/09/24 11:17:54;;;;;;;3.00;2.60;;;;;;;16.09;97.98;98735.64;106212;1271;22607;-79
2023/09/24 11:20:22;;;;;;;5.00;2.80;;;;;;;16.14;96.77;98735.02;106033;1273;22614;-79
2023/09/24 11:23:11;;;;;;;3.10;2.40;;;;;;;16.07;96.59;98733.30;106448;1270;22570;-79
2023/09/24 11:25:47;;;;;;;3.20;2.40;;;;;;;16.02;95.71;98738.77;106462;1273;25402;-81
2023/09/24 11:28:15;;;;;;;3.40;2.00;;;;;;;16.18;97.63;98742.89;106626;1278;22656;-82
2023/09/24 11:30:49;;;;;;;3.00;2.30;;;;;;;16.55;97.68;98737.99;106553;1282;24384;-81
2023/09/24 11:33:21;;;;;;;3.30;2.50;;;;;;;16.78;97.43;98730.73;106671;1284;22681;-81